Time;durP1;ratioP1;P1;durP2;ratioP2;P2;SDS_P1;SDS_P2;PMS_P1;PMS_P2;Temp;Humidity;BMP_temperature;BMP_pressure;BME280_temperature;BME280_humidity;BME280_pressure;Samples;Min_cycle;Max_cycle;Signal;HPM_P1;HPM_P2
2022/11/16 00:01:49;;;;;;;8.50;4.70;;;11.50;91.70;;;;;;5058196;28;20037;-73
2022/11/16 00:04:15;;;;;;;8.95;4.82;;;11.50;91.80;;;;;;5056036;28;20042;-80
2022/11/16 00:06:41;;;;;;;10.07;4.72;;;11.50;91.80;;;;;;5049908;28;20051;-82
2022/11/16 00:09:21;;;;;;;7.13;4.80;;;11.50;91.80;;;;;;5057936;28;20049;-76
2022/11/16 00:12:00;;;;;;;8.32;4.47;;;11.50;91.80;;;;;;5054438;28;20044;-74
2022/11/16 00:14:28;;;;;;;8.05;4.55;;;11.50;91.70;;;;;;5049144;28;20048;-76
2022/11/16 00:16:54;;;;;;;10.30;4.80;;;11.50;91.80;;;;;;5061048;28;20029;-75
2022/11/16 00:19:20;;;;;;;8.18;4.70;;;11.50;91.70;;;;;;5076796;28;20029;-80
2022/11/16 00:21:46;;;;;;;8.43;4.82;;;11.40;91.80;;;;;;5067840;28;20079;-73
2022/11/16 00:24:14;;;;;;;7.90;4.30;;;11.50;91.70;;;;;;5050996;28;20068;-76
2022/11/16 00:26:40;;;;;;;8.68;4.72;;;11.40;91.70;;;;;;5061638;28;20040;-81
2022/11/16 00:29:05;;;;;;;9.02;5.05;;;11.40;91.70;;;;;;5049067;28;20064;-77
2022/11/16 00:31:31;;;;;;;8.68;4.57;;;11.40;91.60;;;;;;5061716;28;20694;-73
2022/11/16 00:33:57;;;;;;;9.77;4.47;;;11.30;91.70;;;;;;5053183;28;20195;-76
2022/11/16 00:36:22;;;;;;;9.50;4.20;;;11.30;91.70;;;;;;5048632;28;20029;-74
2022/11/16 00:38:52;;;;;;;8.55;3.95;;;11.30;91.60;;;;;;5064422;28;20534;-77
2022/11/16 00:41:18;;;;;;;10.07;4.55;;;11.20;91.50;;;;;;5046829;28;20213;-74
2022/11/16 00:43:43;;;;;;;9.93;4.45;;;11.20;91.40;;;;;;5051774;28;20024;-77
2022/11/16 00:46:09;;;;;;;8.50;4.18;;;11.20;91.50;;;;;;5056133;28;20037;-76
2022/11/16 00:48:35;;;;;;;7.38;4.05;;;11.10;91.30;;;;;;5054471;28;20384;-72
2022/11/16 00:51:01;;;;;;;9.90;4.45;;;11.10;91.40;;;;;;5052507;28;20086;-72
2022/11/16 00:53:26;;;;;;;9.23;3.90;;;11.10;91.30;;;;;;5050424;28;20075;-73
2022/11/16 00:55:52;;;;;;;9.40;4.43;;;11.10;91.30;;;;;;5069597;28;20031;-77
2022/11/16 00:58:18;;;;;;;9.68;3.95;;;11.10;91.30;;;;;;5053774;28;20032;-75
2022/11/16 01:00:43;;;;;;;8.05;3.55;;;11.10;91.20;;;;;;5052968;28;20047;-72
2022/11/16 01:03:09;;;;;;;7.25;3.88;;;11.00;91.00;;;;;;5049232;28;20052;-72
2022/11/16 01:05:35;;;;;;;13.35;4.47;;;11.00;91.00;;;;;;5050534;28;20029;-74
2022/11/16 01:08:01;;;;;;;9.57;4.05;;;11.00;91.00;;;;;;5058419;28;20364;-72
2022/11/16 01:10:26;;;;;;;9.95;4.13;;;10.90;91.00;;;;;;5053732;28;20040;-74
2022/11/16 01:12:53;;;;;;;11.95;4.63;;;10.90;91.00;;;;;;5051043;28;20037;-75
2022/11/16 01:15:21;;;;;;;9.23;3.72;;;10.80;91.00;;;;;;5048396;28;20097;-74
2022/11/16 01:17:48;;;;;;;8.07;4.03;;;10.80;91.00;;;;;;5050409;28;20499;-76
2022/11/16 01:20:17;;;;;;;7.85;3.95;;;10.70;91.00;;;;;;5048495;28;20040;-73
2022/11/16 01:22:43;;;;;;;9.60;3.70;;;10.70;91.10;;;;;;5045566;28;20414;-73
2022/11/16 01:25:11;;;;;;;10.55;4.30;;;10.60;91.00;;;;;;5050058;28;20564;-74
2022/11/16 01:27:37;;;;;;;9.43;3.85;;;10.60;91.00;;;;;;5046938;28;20476;-73
2022/11/16 01:30:04;;;;;;;8.90;3.90;;;10.60;91.10;;;;;;5047536;28;20505;-76
2022/11/16 01:32:30;;;;;;;11.35;4.45;;;10.60;91.10;;;;;;5047599;28;20079;-76
2022/11/16 01:34:55;;;;;;;11.63;3.90;;;10.50;91.10;;;;;;5047795;28;20040;-73
2022/11/16 01:37:21;;;;;;;7.57;3.65;;;10.50;91.20;;;;;;5064837;28;20048;-73
2022/11/16 01:39:48;;;;;;;10.90;4.35;;;10.50;91.20;;;;;;5048070;28;20031;-73
2022/11/16 01:42:28;;;;;;;11.27;4.05;;;10.40;91.20;;;;;;5052605;28;20037;-74
2022/11/16 01:44:55;;;;;;;10.68;3.85;;;10.40;91.30;;;;;;5051658;28;20028;-76
2022/11/16 01:47:21;;;;;;;8.82;3.33;;;10.40;91.30;;;;;;5047920;28;20117;-75
2022/11/16 01:49:52;;;;;;;7.63;3.28;;;10.30;91.30;;;;;;5052041;28;20036;-78
2022/11/16 01:52:21;;;;;;;7.38;3.03;;;10.30;91.20;;;;;;5055023;28;20368;-74
2022/11/16 01:54:50;;;;;;;12.18;4.15;;;10.20;91.20;;;;;;5063189;28;20050;-76
2022/11/16 01:57:22;;;;;;;7.57;3.58;;;10.10;91.30;;;;;;5051559;28;20036;-77
2022/11/16 01:59:51;;;;;;;10.95;3.97;;;10.10;91.50;;;;;;5048502;28;20033;-79
2022/11/16 02:02:17;;;;;;;9.75;3.33;;;10.10;91.60;;;;;;5044521;28;20685;-77
2022/11/16 02:04:44;;;;;;;13.63;3.45;;;10.10;91.60;;;;;;5049453;28;20123;-73
2022/11/16 02:07:21;;;;;;;9.77;3.40;;;10.10;91.60;;;;;;5051713;28;20048;-78
2022/11/16 02:09:59;;;;;;;9.88;3.38;;;10.10;91.60;;;;;;5046913;28;20192;-74
2022/11/16 02:12:25;;;;;;;9.02;3.50;;;10.00;91.60;;;;;;5065333;28;20037;-74
2022/11/16 02:15:30;;;;;;;9.20;3.28;;;9.90;91.60;;;;;;5046994;28;20541;-76
2022/11/16 02:17:59;;;;;;;9.38;3.50;;;9.90;91.60;;;;;;5047494;28;20270;-74
2022/11/16 02:20:31;;;;;;;7.93;3.42;;;9.80;91.70;;;;;;5053572;28;20048;-75
2022/11/16 02:22:56;;;;;;;10.55;3.70;;;9.80;91.70;;;;;;5043110;28;20373;-76
2022/11/16 02:26:11;;;;;;;7.13;3.38;;;9.80;91.70;;;;;;5063932;28;20037;-74
2022/11/16 02:28:36;;;;;;;10.65;4.88;;;9.70;91.80;;;;;;5060955;28;20118;-76
2022/11/16 02:31:05;;;;;;;7.97;3.55;;;9.70;91.70;;;;;;5047971;28;20049;-78
2022/11/16 02:33:37;;;;;;;10.85;3.47;;;9.70;91.70;;;;;;5048355;28;20043;-81
2022/11/16 02:36:07;;;;;;;10.05;3.40;;;9.70;91.80;;;;;;5047096;28;20036;-73
2022/11/16 02:38:38;;;;;;;11.55;3.95;;;9.60;91.90;;;;;;5044590;28;20033;-76
2022/11/16 02:41:24;;;;;;;10.80;3.15;;;9.60;91.80;;;;;;5046507;28;20480;-75
2022/11/16 02:43:55;;;;;;;8.57;3.45;;;9.60;91.90;;;;;;5048022;28;20036;-75
2022/11/16 02:46:28;;;;;;;7.68;3.75;;;9.60;91.80;;;;;;5051828;28;21920;-75
2022/11/16 02:48:57;;;;;;;8.95;4.25;;;9.50;91.80;;;;;;5054427;28;20028;-75
2022/11/16 02:51:26;;;;;;;9.93;4.10;;;9.50;91.70;;;;;;5042763;28;20025;-75
2022/11/16 02:54:11;;;;;;;11.77;5.00;;;9.40;91.70;;;;;;5047548;28;20133;-74
2022/11/16 02:56:49;;;;;;;8.63;3.63;;;9.40;91.80;;;;;;5054152;28;20057;-74
2022/11/16 02:59:15;;;;;;;11.82;3.60;;;9.40;91.60;;;;;;5048906;28;20041;-73
2022/11/16 03:02:12;;;;;;;10.40;3.58;;;9.30;91.70;;;;;;5050096;28;20037;-73
2022/11/16 03:04:51;;;;;;;8.57;3.25;;;9.30;91.70;;;;;;5005676;28;20120;-72
2022/11/16 03:07:23;;;;;;;12.32;3.70;;;9.30;91.60;;;;;;5050550;28;20028;-73
2022/11/16 03:09:50;;;;;;;9.25;3.35;;;9.20;91.50;;;;;;5049753;28;20082;-77
2022/11/16 03:12:24;;;;;;;11.43;3.92;;;9.20;91.50;;;;;;5046485;28;20037;-79
2022/11/16 03:14:54;;;;;;;11.52;3.70;;;9.20;91.60;;;;;;5064432;28;20482;-76
2022/11/16 03:17:28;;;;;;;12.10;3.63;;;9.20;91.60;;;;;;5053669;28;20043;-82
2022/11/16 03:20:02;;;;;;;11.18;3.58;;;9.10;91.60;;;;;;5057260;28;20148;-75
2022/11/16 03:22:45;;;;;;;11.82;3.70;;;9.10;91.70;;;;;;5051411;28;20055;-72
2022/11/16 03:25:14;;;;;;;8.52;3.53;;;9.10;91.70;;;;;;5066616;28;20036;-74
2022/11/16 03:27:43;;;;;;;12.00;3.75;;;9.10;91.70;;;;;;5052108;28;20033;-73
2022/11/16 03:30:16;;;;;;;12.93;3.78;;;9.10;91.70;;;;;;5049059;28;20048;-75
2022/11/16 03:32:52;;;;;;;8.90;3.60;;;9.10;91.70;;;;;;5047822;28;20052;-74
2022/11/16 03:35:51;;;;;;;10.10;4.05;;;9.10;91.60;;;;;;5047967;28;20048;-74
2022/11/16 03:38:19;;;;;;;11.23;3.97;;;9.00;91.70;;;;;;5049364;28;20106;-72
2022/11/16 03:40:46;;;;;;;10.48;3.83;;;9.00;91.80;;;;;;5051057;28;20033;-79
2022/11/16 03:43:13;;;;;;;13.18;3.90;;;9.00;91.80;;;;;;5053099;28;20055;-75
2022/11/16 03:45:40;;;;;;;9.88;4.20;;;8.90;91.70;;;;;;5053302;28;20111;-75
2022/11/16 03:48:06;;;;;;;11.60;3.95;;;8.90;91.80;;;;;;5054995;28;20033;-84
2022/11/16 03:50:32;;;;;;;12.38;3.67;;;8.90;92.00;;;;;;5050090;28;20125;-72
2022/11/16 03:52:58;;;;;;;11.07;3.85;;;8.80;92.00;;;;;;5055043;28;20457;-72
2022/11/16 03:55:24;;;;;;;12.48;4.07;;;8.80;92.10;;;;;;5053047;28;20032;-79
2022/11/16 03:57:49;;;;;;;10.88;4.15;;;8.80;92.20;;;;;;5067504;28;20065;-73
2022/11/16 04:00:15;;;;;;;14.05;4.47;;;8.90;92.20;;;;;;5048951;28;20037;-73
2022/11/16 04:02:40;;;;;;;9.07;3.92;;;8.80;92.30;;;;;;5056280;28;20049;-72
2022/11/16 04:24:31;;;;;;;14.15;4.50;;;8.60;92.90;;;;;;5048251;28;20044;-72
2022/11/16 04:29:47;;;;;;;14.77;4.28;;;8.70;93.00;;;;;;5046215;28;20072;-74
2022/11/16 04:37:53;;;;;;;11.27;3.92;;;8.60;93.10;;;;;;5045557;28;20059;-76
2022/11/16 04:40:21;;;;;;;14.85;5.03;;;8.70;93.10;;;;;;5063583;28;20388;-73
2022/11/16 04:42:58;;;;;;;14.82;4.30;;;8.70;93.00;;;;;;5058328;28;20034;-73
2022/11/16 04:48:10;;;;;;;14.40;4.32;;;8.70;93.10;;;;;;5057817;28;20127;-73
2022/11/16 04:50:36;;;;;;;12.57;4.40;;;8.60;93.10;;;;;;5051385;28;20487;-73
2022/11/16 04:53:03;;;;;;;13.65;4.60;;;8.70;93.00;;;;;;5052914;28;20033;-74
2022/11/16 04:55:28;;;;;;;15.40;4.00;;;8.60;93.10;;;;;;5070498;28;20025;-72
2022/11/16 04:57:54;;;;;;;15.48;4.65;;;8.60;93.10;;;;;;5051112;28;20070;-75
2022/11/16 05:00:20;;;;;;;12.68;4.07;;;8.60;93.10;;;;;;5048432;28;20037;-84
2022/11/16 05:02:46;;;;;;;12.18;4.22;;;8.60;93.10;;;;;;5052679;28;20452;-77
2022/11/16 05:05:12;;;;;;;18.98;4.65;;;8.60;93.10;;;;;;5052390;28;20033;-72
2022/11/16 05:07:38;;;;;;;12.32;4.00;;;8.60;93.10;;;;;;5052376;28;20060;-73
2022/11/16 05:10:05;;;;;;;15.52;3.92;;;8.60;93.10;;;;;;5051720;28;20745;-74
2022/11/16 05:12:31;;;;;;;15.65;4.80;;;8.50;93.10;;;;;;5050615;28;20040;-74
2022/11/16 05:14:57;;;;;;;15.18;4.18;;;8.50;93.10;;;;;;5046514;28;20036;-73
2022/11/16 05:17:24;;;;;;;10.32;3.78;;;8.50;93.20;;;;;;5045925;28;20479;-80
2022/11/16 05:22:34;;;;;;;15.98;4.00;;;8.50;93.10;;;;;;5046192;28;20532;-74
2022/11/16 05:25:00;;;;;;;13.60;3.60;;;8.50;93.10;;;;;;5046199;28;20055;-72
2022/11/16 05:27:27;;;;;;;17.55;5.00;;;8.40;93.10;;;;;;5045508;28;20126;-77
2022/11/16 05:29:54;;;;;;;17.95;3.92;;;8.40;93.10;;;;;;5047295;28;20114;-73
2022/11/16 05:32:21;;;;;;;14.70;4.20;;;8.40;93.10;;;;;;5047431;28;20098;-77
2022/11/16 05:34:47;;;;;;;10.02;4.00;;;8.40;93.20;;;;;;5055311;28;20032;-73
2022/11/16 05:37:13;;;;;;;12.80;3.83;;;8.40;93.10;;;;;;5051858;28;20511;-72
2022/11/16 05:39:39;;;;;;;15.35;3.53;;;8.40;93.10;;;;;;5046767;28;20126;-80
2022/11/16 05:42:05;;;;;;;12.32;4.03;;;8.40;93.10;;;;;;5041769;28;20172;-73
2022/11/16 05:44:31;;;;;;;12.45;3.90;;;8.40;93.10;;;;;;5049706;28;20132;-73
2022/11/16 05:46:57;;;;;;;13.00;4.35;;;8.30;93.10;;;;;;5043255;28;20503;-74
2022/11/16 05:49:23;;;;;;;10.13;4.78;;;8.30;93.10;;;;;;5044983;28;20087;-73
2022/11/16 05:51:49;;;;;;;15.88;3.90;;;8.40;93.10;;;;;;5058026;28;20048;-79
2022/11/16 05:54:17;;;;;;;13.32;4.10;;;8.40;93.00;;;;;;5049759;28;20051;-74
2022/11/16 05:56:44;;;;;;;13.30;3.80;;;8.40;93.00;;;;;;5049469;28;20067;-75
2022/11/16 05:59:14;;;;;;;15.95;4.32;;;8.40;93.10;;;;;;5049928;28;20029;-77
2022/11/16 06:01:40;;;;;;;15.73;4.18;;;8.50;93.10;;;;;;5041739;28;20171;-76
2022/11/16 06:04:05;;;;;;;16.17;4.68;;;8.50;93.10;;;;;;5043298;28;20542;-74
2022/11/16 06:06:31;;;;;;;15.93;4.20;;;8.50;93.00;;;;;;5052244;28;20039;-76
2022/11/16 06:08:57;;;;;;;18.17;4.15;;;8.50;92.90;;;;;;5049009;28;20492;-73
2022/11/16 06:11:22;;;;;;;15.50;4.25;;;8.50;92.80;;;;;;5039713;28;20036;-74
2022/11/16 06:13:48;;;;;;;17.00;4.28;;;8.40;92.80;;;;;;5043604;28;20492;-74
2022/11/16 06:16:14;;;;;;;13.57;4.20;;;8.40;92.80;;;;;;5046766;28;20082;-73
2022/11/16 06:18:42;;;;;;;17.80;4.18;;;8.30;92.80;;;;;;5048363;28;20044;-74
2022/11/16 06:21:09;;;;;;;16.08;4.82;;;8.30;92.80;;;;;;5050179;28;20174;-78
2022/11/16 06:23:35;;;;;;;15.60;4.25;;;8.30;92.80;;;;;;5042655;28;20493;-76
2022/11/16 06:26:01;;;;;;;17.15;4.38;;;8.30;92.80;;;;;;5048722;28;20571;-74
2022/11/16 06:28:27;;;;;;;16.83;5.15;;;8.20;92.90;;;;;;5051310;28;20111;-74
2022/11/16 06:30:53;;;;;;;14.52;4.40;;;8.20;93.00;;;;;;5041029;28;20182;-77
2022/11/16 06:33:19;;;;;;;15.30;5.22;;;8.20;93.10;;;;;;5045625;28;20112;-76
2022/11/16 06:35:45;;;;;;;12.48;4.65;;;8.20;93.10;;;;;;5047244;28;20033;-72
2022/11/16 06:38:17;;;;;;;18.00;5.28;;;8.20;93.10;;;;;;5066931;28;20052;-75
2022/11/16 06:40:49;;;;;;;15.75;5.15;;;8.20;93.10;;;;;;5058441;28;20200;-72
2022/11/16 06:43:15;;;;;;;16.65;5.57;;;8.20;93.20;;;;;;5051577;28;20033;-76
2022/11/16 06:45:40;;;;;;;13.63;5.00;;;8.10;93.10;;;;;;5051617;28;20459;-73
2022/11/16 06:48:06;;;;;;;18.00;5.93;;;8.20;93.20;;;;;;5049199;28;20037;-80
2022/11/16 06:50:32;;;;;;;15.07;5.57;;;8.20;93.20;;;;;;5048205;28;20049;-75
2022/11/16 06:52:59;;;;;;;24.85;4.85;;;8.10;93.10;;;;;;5045557;28;20028;-74
2022/11/16 06:55:26;;;;;;;15.07;5.20;;;8.20;93.20;;;;;;5044320;28;20038;-78
2022/11/16 06:57:51;;;;;;;19.00;4.40;;;8.20;93.10;;;;;;5053282;28;20094;-74
2022/11/16 07:00:18;;;;;;;19.55;4.95;;;8.10;93.20;;;;;;5051523;28;20040;-72
2022/11/16 07:02:43;;;;;;;16.42;5.57;;;8.10;93.10;;;;;;5049490;28;20037;-72
2022/11/16 07:05:09;;;;;;;17.58;5.28;;;8.20;93.20;;;;;;5052495;28;20043;-79
2022/11/16 07:07:35;;;;;;;18.60;5.13;;;8.20;93.10;;;;;;5055314;28;20123;-73
2022/11/16 07:10:00;;;;;;;19.80;5.97;;;8.10;93.10;;;;;;5048082;28;20082;-76
2022/11/16 07:12:26;;;;;;;18.02;5.68;;;8.20;93.20;;;;;;5036172;28;20140;-76
2022/11/16 07:14:52;;;;;;;20.27;5.80;;;8.20;93.20;;;;;;5046314;28;20041;-76
2022/11/16 07:17:17;;;;;;;18.27;6.22;;;8.20;93.10;;;;;;5041094;28;20029;-76
2022/11/16 07:19:43;;;;;;;22.27;6.88;;;8.20;93.00;;;;;;5050834;28;20045;-76
2022/11/16 07:22:09;;;;;;;15.32;5.55;;;8.20;93.00;;;;;;5061870;28;20771;-76
2022/11/16 07:24:34;;;;;;;19.58;5.93;;;8.20;93.00;;;;;;5041808;28;20037;-76
2022/11/16 07:27:00;;;;;;;22.48;6.18;;;8.30;92.80;;;;;;5044543;28;20025;-77
2022/11/16 07:29:26;;;;;;;24.42;6.18;;;8.30;92.90;;;;;;5043847;28;20473;-76
2022/11/16 07:31:51;;;;;;;17.48;5.55;;;8.30;92.80;;;;;;5044201;28;20384;-76
2022/11/16 07:34:17;;;;;;;20.92;5.47;;;8.30;92.70;;;;;;5049485;28;20468;-76
2022/11/16 07:36:43;;;;;;;17.65;5.57;;;8.30;92.70;;;;;;5054902;28;20498;-75
2022/11/16 07:39:09;;;;;;;16.48;5.03;;;8.40;92.70;;;;;;5045760;28;20562;-76
2022/11/16 07:41:37;;;;;;;13.02;5.15;;;8.40;92.60;;;;;;5052705;28;20123;-76
2022/11/16 07:44:03;;;;;;;15.48;5.53;;;8.40;92.60;;;;;;5061469;28;20044;-77
2022/11/16 07:46:29;;;;;;;20.00;5.25;;;8.40;92.50;;;;;;5052920;28;20035;-77
2022/11/16 07:48:55;;;;;;;19.52;5.70;;;8.50;92.40;;;;;;5063095;28;20424;-76
2022/11/16 07:51:21;;;;;;;15.30;4.95;;;8.50;92.30;;;;;;5047632;28;20052;-76
2022/11/16 07:53:47;;;;;;;13.20;4.95;;;8.60;92.30;;;;;;5049782;28;20037;-76
2022/11/16 07:56:12;;;;;;;17.45;5.40;;;8.60;92.20;;;;;;5052089;28;20124;-76
2022/11/16 07:58:38;;;;;;;14.93;5.00;;;8.60;92.00;;;;;;5044614;28;20036;-76
2022/11/16 08:01:11;;;;;;;18.20;5.45;;;8.60;92.00;;;;;;5045992;28;20052;-75
2022/11/16 08:03:38;;;;;;;15.02;5.18;;;8.60;91.90;;;;;;5048542;28;20055;-76
2022/11/16 08:06:10;;;;;;;15.93;4.85;;;8.70;91.80;;;;;;5048416;28;20064;-76
2022/11/16 08:08:36;;;;;;;22.35;5.35;;;8.70;91.70;;;;;;5047301;28;20132;-77
2022/11/16 08:11:03;;;;;;;17.92;5.20;;;8.80;91.60;;;;;;5051224;28;20163;-76
2022/11/16 08:13:32;;;;;;;14.80;4.50;;;8.80;91.50;;;;;;5050466;28;20048;-75
2022/11/16 08:16:24;;;;;;;14.23;4.47;;;8.90;91.40;;;;;;5052966;28;20083;-75
2022/11/16 08:18:50;;;;;;;16.55;4.40;;;9.00;91.20;;;;;;5049328;28;20040;-78
2022/11/16 08:21:17;;;;;;;14.20;5.03;;;9.00;91.10;;;;;;5053839;28;20191;-77
2022/11/16 08:23:43;;;;;;;19.90;5.13;;;9.10;91.00;;;;;;5050262;28;20083;-78
2022/11/16 08:26:14;;;;;;;16.25;4.85;;;9.20;90.80;;;;;;5048354;28;20830;-78
2022/11/16 08:28:42;;;;;;;15.50;5.78;;;9.20;90.60;;;;;;5047291;28;20048;-78
2022/11/16 08:31:17;;;;;;;19.63;6.60;;;9.20;90.40;;;;;;5047090;28;20390;-77
2022/11/16 08:33:43;;;;;;;15.10;6.40;;;9.20;90.30;;;;;;5046529;28;20052;-77
2022/11/16 08:36:15;;;;;;;14.80;5.60;;;9.30;90.30;;;;;;5045134;28;20029;-78
2022/11/16 08:38:42;;;;;;;17.60;6.18;;;9.40;90.10;;;;;;5047157;28;20064;-75
2022/11/16 08:41:08;;;;;;;12.73;5.43;;;9.40;89.90;;;;;;5050052;28;20452;-76
2022/11/16 08:43:34;;;;;;;17.40;5.85;;;9.40;89.70;;;;;;5054605;28;20055;-78
2022/11/16 08:46:00;;;;;;;16.30;5.60;;;9.40;89.80;;;;;;5047053;28;20102;-78
2022/11/16 08:48:26;;;;;;;13.57;5.53;;;9.40;89.90;;;;;;5051601;28;20095;-76
2022/11/16 08:50:52;;;;;;;11.35;4.70;;;9.50;89.70;;;;;;5053019;28;20053;-77
2022/11/16 08:53:17;;;;;;;19.08;5.90;;;9.50;89.50;;;;;;5050722;28;20556;-77
2022/11/16 08:55:43;;;;;;;15.77;5.55;;;9.60;89.30;;;;;;5050319;28;20037;-77
2022/11/16 08:58:10;;;;;;;14.68;4.78;;;9.60;89.10;;;;;;5051348;28;20076;-75
2022/11/16 09:00:36;;;;;;;11.18;4.32;;;9.60;89.30;;;;;;5047910;28;20044;-75
2022/11/16 09:03:01;;;;;;;18.15;6.07;;;9.60;89.20;;;;;;5052062;28;20039;-75
2022/11/16 09:05:27;;;;;;;18.30;6.00;;;9.70;89.00;;;;;;5049496;28;20041;-76
2022/11/16 09:07:53;;;;;;;16.67;5.20;;;9.70;88.90;;;;;;5065907;28;20044;-75
2022/11/16 09:10:21;;;;;;;17.20;5.90;;;9.70;88.90;;;;;;5052641;28;20045;-74
2022/11/16 09:12:48;;;;;;;18.13;7.40;;;9.70;88.70;;;;;;5050653;28;20096;-73
2022/11/16 09:15:14;;;;;;;14.88;6.90;;;9.80;88.70;;;;;;5046089;28;20033;-78
2022/11/16 09:17:39;;;;;;;12.63;6.50;;;9.70;88.70;;;;;;5047754;28;20040;-75
2022/11/16 09:20:06;;;;;;;13.48;4.97;;;9.70;88.60;;;;;;5050026;28;20035;-74
2022/11/16 09:22:31;;;;;;;11.02;4.80;;;9.70;88.50;;;;;;5047025;28;20603;-76
2022/11/16 09:24:57;;;;;;;13.23;4.80;;;9.70;88.60;;;;;;5058701;28;20123;-76
2022/11/16 09:27:23;;;;;;;16.17;6.30;;;9.80;88.50;;;;;;5050594;28;20040;-76
2022/11/16 09:29:48;;;;;;;14.50;5.68;;;9.70;88.40;;;;;;5050839;28;20140;-76
2022/11/16 09:32:14;;;;;;;13.07;5.53;;;9.80;88.30;;;;;;5057073;28;20105;-77
2022/11/16 09:34:39;;;;;;;13.52;5.63;;;9.80;88.30;;;;;;5054995;28;20169;-76
2022/11/16 09:37:06;;;;;;;11.73;4.68;;;9.90;88.10;;;;;;5049370;28;20598;-73
2022/11/16 09:39:33;;;;;;;13.90;5.43;;;10.00;88.00;;;;;;5046950;28;20048;-75
2022/11/16 09:42:25;;;;;;;14.43;5.30;;;10.00;87.80;;;;;;5044043;28;20045;-73
2022/11/16 09:45:06;;;;;;;12.35;5.25;;;10.10;87.80;;;;;;5052857;28;20466;-75
2022/11/16 09:47:48;;;;;;;12.95;5.00;;;10.00;87.70;;;;;;5043641;28;20389;-75
2022/11/16 09:50:39;;;;;;;19.15;7.78;;;10.10;87.60;;;;;;5045161;28;20069;-76
2022/11/16 09:53:15;;;;;;;17.75;10.50;;;10.00;87.70;;;;;;5047840;28;20037;-74
2022/11/16 09:55:51;;;;;;;15.10;5.55;;;10.10;87.60;;;;;;5048881;28;20530;-75
2022/11/16 09:58:28;;;;;;;16.08;4.90;;;10.10;87.60;;;;;;5051546;28;20032;-74
2022/11/16 10:01:06;;;;;;;13.55;5.32;;;10.10;87.50;;;;;;5052551;28;20048;-76
2022/11/16 10:03:39;;;;;;;15.80;5.05;;;10.30;87.50;;;;;;5047609;28;20037;-73
2022/11/16 10:06:07;;;;;;;13.15;5.10;;;10.40;87.20;;;;;;5048190;28;20428;-73
2022/11/16 10:08:52;;;;;;;15.32;5.55;;;10.40;86.90;;;;;;5045140;28;20491;-74
2022/11/16 10:11:50;;;;;;;15.73;5.47;;;10.40;87.10;;;;;;5062486;28;21267;-74
2022/11/16 10:14:43;;;;;;;11.20;5.07;;;10.30;87.30;;;;;;5030943;28;20040;-76
2022/11/16 10:17:15;;;;;;;14.38;5.88;;;10.40;87.50;;;;;;5046165;28;20132;-74
2022/11/16 10:20:04;;;;;;;15.52;6.00;;;10.40;87.50;;;;;;5055763;28;20127;-76
2022/11/16 10:23:01;;;;;;;18.35;6.93;;;10.30;87.60;;;;;;5050753;28;20055;-76
2022/11/16 10:25:42;;;;;;;15.15;6.13;;;10.40;87.80;;;;;;5052614;28;20711;-78
2022/11/16 10:28:36;;;;;;;14.93;5.25;;;10.60;88.10;;;;;;5046012;28;20025;-75
2022/11/16 10:31:13;;;;;;;17.95;6.28;;;10.80;87.60;;;;;;5047318;28;20036;-73
2022/11/16 10:33:42;;;;;;;16.88;5.70;;;10.80;87.30;;;;;;5059771;28;20040;-77
2022/11/16 10:36:13;;;;;;;15.82;5.80;;;10.90;87.00;;;;;;5047328;28;20043;-75
2022/11/16 10:38:40;;;;;;;14.20;5.60;;;10.90;87.00;;;;;;5048860;28;20033;-77
2022/11/16 10:41:20;;;;;;;12.50;5.22;;;10.90;87.20;;;;;;5048726;28;20098;-77
2022/11/16 10:43:47;;;;;;;14.65;5.47;;;11.00;87.40;;;;;;5071630;28;20053;-76
2022/11/16 10:47:14;;;;;;;18.20;4.57;;;11.10;87.20;;;;;;5047414;28;20040;-73
2022/11/16 10:49:48;;;;;;;14.98;4.85;;;11.30;87.30;;;;;;5024221;28;20706;-74
2022/11/16 10:52:14;;;;;;;10.13;4.22;;;11.40;86.10;;;;;;5026402;28;20044;-73
2022/11/16 10:54:40;;;;;;;17.13;4.53;;;11.60;85.90;;;;;;5049492;28;20049;-74
2022/11/16 10:57:12;;;;;;;11.23;4.45;;;11.70;85.40;;;;;;5046953;28;20090;-73
2022/11/16 10:59:38;;;;;;;15.27;5.60;;;11.70;85.20;;;;;;5050331;28;20049;-76
2022/11/16 11:02:26;;;;;;;15.93;4.40;;;11.90;85.30;;;;;;5054866;28;20823;-74
2022/11/16 11:05:18;;;;;;;14.57;4.40;;;11.80;84.80;;;;;;5047034;28;20064;-74
2022/11/16 11:07:49;;;;;;;13.40;4.43;;;11.80;84.90;;;;;;5045946;28;20033;-73
2022/11/16 11:10:24;;;;;;;13.90;4.70;;;11.70;85.20;;;;;;5047357;28;20503;-72
2022/11/16 11:13:10;;;;;;;13.00;4.80;;;11.70;85.20;;;;;;5045600;28;20048;-74
2022/11/16 11:15:37;;;;;;;14.15;4.93;;;11.70;85.50;;;;;;5035633;28;20033;-75
2022/11/16 11:18:23;;;;;;;12.38;4.38;;;11.60;85.80;;;;;;5044913;28;20497;-73
2022/11/16 11:21:11;;;;;;;12.40;4.15;;;11.60;85.90;;;;;;5058374;28;20059;-73
2022/11/16 11:24:01;;;;;;;16.45;4.45;;;11.60;85.80;;;;;;5043542;28;20186;-75
2022/11/16 11:26:39;;;;;;;15.73;4.53;;;11.50;86.00;;;;;;5042867;28;20129;-72
2022/11/16 11:29:25;;;;;;;13.10;3.53;;;11.60;86.00;;;;;;5057245;28;20021;-73
2022/11/16 11:31:59;;;;;;;12.65;5.00;;;11.50;85.80;;;;;;5036833;28;20036;-74
2022/11/16 11:34:31;;;;;;;14.40;3.83;;;11.50;85.60;;;;;;5044193;28;20095;-74
2022/11/16 11:37:01;;;;;;;13.27;4.13;;;11.50;85.80;;;;;;5041412;28;20072;-72
2022/11/16 11:39:30;;;;;;;15.90;4.20;;;11.60;86.00;;;;;;5045137;28;20479;-74
2022/11/16 11:42:01;;;;;;;10.25;3.45;;;11.60;86.00;;;;;;5046302;28;20060;-73
2022/11/16 11:44:48;;;;;;;10.57;3.50;;;11.60;85.80;;;;;;5047054;28;20032;-72
2022/11/16 11:47:54;;;;;;;14.82;4.78;;;11.60;85.80;;;;;;5042512;28;20582;-72
2022/11/16 11:50:35;;;;;;;10.35;4.22;;;11.60;86.00;;;;;;5046308;28;20094;-76
2022/11/16 11:53:28;;;;;;;15.68;4.03;;;11.60;86.20;;;;;;5048486;28;20040;-74
2022/11/16 11:55:57;;;;;;;10.32;3.03;;;11.60;86.30;;;;;;5046710;28;20033;-74
2022/11/16 11:58:28;;;;;;;16.33;4.00;;;11.60;85.90;;;;;;5044937;28;20483;-73
2022/11/16 12:01:48;;;;;;;10.60;3.17;;;11.70;86.00;;;;;;5042788;28;20488;-74
2022/11/16 12:04:41;;;;;;;12.23;3.40;;;11.90;86.10;;;;;;4992574;28;20084;-72
2022/11/16 12:07:30;;;;;;;12.25;3.58;;;12.10;85.10;;;;;;5060016;28;20396;-72
2022/11/16 12:10:17;;;;;;;12.95;2.97;;;12.30;84.10;;;;;;5050188;28;20052;-76
2022/11/16 12:12:51;;;;;;;12.70;3.17;;;12.40;83.90;;;;;;5044427;28;20056;-76
2022/11/16 12:15:36;;;;;;;11.05;3.00;;;12.60;83.80;;;;;;5042344;28;20029;-74
2022/11/16 12:18:01;;;;;;;15.43;3.47;;;12.60;83.10;;;;;;5042369;28;20091;-76
2022/11/16 12:20:57;;;;;;;14.38;3.08;;;12.80;82.40;;;;;;5039272;28;20083;-74
2022/11/16 12:23:47;;;;;;;13.68;3.90;;;12.70;82.30;;;;;;5020722;28;20110;-74
2022/11/16 12:26:42;;;;;;;12.27;3.65;;;12.70;82.50;;;;;;5045482;28;20501;-73
2022/11/16 12:29:29;;;;;;;13.33;3.47;;;12.70;82.20;;;;;;5046205;28;20064;-75
2022/11/16 12:32:38;;;;;;;10.02;3.42;;;12.70;82.40;;;;;;5048077;28;20125;-77
2022/11/16 12:35:09;;;;;;;11.63;3.05;;;12.70;82.30;;;;;;4983692;28;20979;-72
2022/11/16 12:37:56;;;;;;;9.90;3.25;;;12.70;82.80;;;;;;4996907;28;20045;-73
2022/11/16 12:40:59;;;;;;;14.40;3.20;;;12.70;81.90;;;;;;5032844;28;20048;-73
2022/11/16 12:43:52;;;;;;;11.43;3.05;;;12.80;82.30;;;;;;5041202;28;20109;-74
2022/11/16 12:46:33;;;;;;;9.60;3.22;;;12.90;82.00;;;;;;5064232;28;20043;-74
2022/11/16 12:49:20;;;;;;;12.38;3.88;;;12.80;81.40;;;;;;5050175;28;20068;-75
2022/11/16 12:52:03;;;;;;;13.38;3.30;;;12.70;81.80;;;;;;5048164;28;20045;-75
2022/11/16 12:54:46;;;;;;;12.18;3.25;;;12.80;81.70;;;;;;5044253;28;20044;-77
2022/11/16 12:57:24;;;;;;;10.02;3.50;;;12.80;81.70;;;;;;5042000;28;20040;-77
2022/11/16 13:00:08;;;;;;;11.02;3.40;;;12.80;81.40;;;;;;5048542;28;20036;-75
2022/11/16 13:02:52;;;;;;;13.73;5.03;;;12.70;81.40;;;;;;5045859;28;20079;-75
2022/11/16 13:05:22;;;;;;;14.48;5.60;;;12.70;81.30;;;;;;5056998;28;20083;-75
2022/11/16 13:07:53;;;;;;;11.40;4.03;;;12.70;81.00;;;;;;5045005;28;20052;-75
2022/11/16 13:10:27;;;;;;;13.15;3.88;;;12.80;81.00;;;;;;5051642;28;20033;-75
2022/11/16 13:13:00;;;;;;;12.20;3.88;;;12.80;80.80;;;;;;5062055;28;20123;-74
2022/11/16 13:15:35;;;;;;;9.90;4.10;;;12.80;80.50;;;;;;5044998;28;20461;-76
2022/11/16 13:18:05;;;;;;;8.90;3.67;;;13.00;80.80;;;;;;5044983;28;20068;-78
2022/11/16 13:20:49;;;;;;;12.23;4.25;;;12.90;80.10;;;;;;5045014;28;20041;-78
2022/11/16 13:23:29;;;;;;;11.38;3.35;;;12.80;80.30;;;;;;5043667;28;20041;-78
2022/11/16 13:26:10;;;;;;;9.80;3.45;;;12.70;80.90;;;;;;5070722;28;20032;-75
2022/11/16 13:28:47;;;;;;;9.07;2.63;;;12.80;81.10;;;;;;5045949;28;20040;-77
2022/11/16 13:31:32;;;;;;;11.18;2.83;;;12.90;80.60;;;;;;5045784;28;20192;-76
2022/11/16 13:34:04;;;;;;;13.77;3.50;;;12.90;80.30;;;;;;5049458;28;20098;-78
2022/11/16 13:36:45;;;;;;;11.85;3.45;;;13.00;80.10;;;;;;5046430;28;20393;-75
2022/11/16 13:39:16;;;;;;;11.50;2.97;;;12.90;80.30;;;;;;5055095;28;20553;-78
2022/11/16 13:42:11;;;;;;;8.80;3.08;;;12.90;80.20;;;;;;5048337;28;20037;-78